Time;durP1;ratioP1;P1;durP2;ratioP2;P2;SDS_P1;SDS_P2;PMS_P1;PMS_P2;Temp;Humidity;BMP_temperature;BMP_pressure;BME280_temperature;BME280_humidity;BME280_pressure;Samples;Min_cycle;Max_cycle;Signal;HPM_P1;HPM_P2
2023/06/29 00:01:51;;;;;;;40.37;37.37;;;25.00;76.30;;;;;;4993618;28;21059;-61
2023/06/29 00:04:21;;;;;;;38.90;36.40;;;25.00;76.50;;;;;;4993776;28;20502;-61
2023/06/29 00:06:49;;;;;;;34.27;31.97;;;25.00;76.50;;;;;;4993015;28;20474;-61
2023/06/29 00:09:16;;;;;;;36.20;33.80;;;25.00;76.60;;;;;;4993607;28;20952;-61
2023/06/29 00:11:45;;;;;;;30.60;28.40;;;25.00;76.90;;;;;;4993403;28;20479;-61
2023/06/29 00:14:11;;;;;;;29.30;27.33;;;25.00;77.30;;;;;;4986976;28;20853;-61
2023/06/29 00:16:38;;;;;;;29.00;27.50;;;25.00;77.70;;;;;;4973659;28;20552;-61
2023/06/29 00:19:07;;;;;;;28.20;26.63;;;25.00;77.90;;;;;;4973977;28;20538;-61
2023/06/29 00:21:34;;;;;;;26.00;24.43;;;25.00;77.90;;;;;;4973878;28;20483;-61
2023/06/29 00:24:01;;;;;;;23.60;22.40;;;25.00;77.70;;;;;;4977286;28;20878;-61
2023/06/29 00:26:28;;;;;;;25.57;24.27;;;25.00;77.80;;;;;;4992884;28;20967;-61
2023/06/29 00:28:57;;;;;;;23.90;22.67;;;25.00;77.80;;;;;;4993220;28;20447;-60
2023/06/29 00:31:24;;;;;;;24.43;23.13;;;25.00;77.50;;;;;;4993174;28;20530;-61
2023/06/29 00:33:51;;;;;;;26.10;24.87;;;25.00;77.70;;;;;;4988188;28;20472;-60
2023/06/29 00:36:18;;;;;;;23.40;22.13;;;25.00;77.40;;;;;;4973400;28;20555;-61
2023/06/29 00:38:45;;;;;;;21.73;20.63;;;25.00;77.60;;;;;;4973634;28;20558;-61
2023/06/29 00:41:12;;;;;;;23.37;22.23;;;25.00;77.70;;;;;;4973702;28;20452;-61
2023/06/29 00:43:38;;;;;;;22.37;21.37;;;25.00;77.80;;;;;;4973694;28;20516;-61
2023/06/29 00:46:07;;;;;;;21.63;20.70;;;24.90;78.00;;;;;;4973243;28;20523;-59
2023/06/29 00:48:35;;;;;;;21.83;20.73;;;24.90;77.90;;;;;;4973532;28;20451;-59
2023/06/29 00:51:02;;;;;;;21.53;20.63;;;24.90;77.40;;;;;;4973485;28;20487;-58
2023/06/29 00:53:29;;;;;;;24.37;23.20;;;24.90;77.80;;;;;;4974375;28;20451;-60
2023/06/29 00:55:57;;;;;;;22.63;21.50;;;24.90;77.90;;;;;;4992518;28;20526;-61
2023/06/29 00:58:24;;;;;;;22.27;21.17;;;24.90;77.70;;;;;;4992701;28;20482;-60
2023/06/29 01:00:51;;;;;;;22.47;21.13;;;24.90;77.70;;;;;;4992679;28;20544;-61
2023/06/29 01:03:20;;;;;;;22.63;21.63;;;25.00;78.10;;;;;;4992555;28;20581;-61
2023/06/29 01:05:47;;;;;;;22.20;21.10;;;24.90;78.10;;;;;;4972998;28;20814;-59
2023/06/29 01:08:18;;;;;;;22.20;21.10;;;24.90;78.10;;;;;;4972983;28;20520;-60
2023/06/29 01:10:47;;;;;;;22.07;21.23;;;24.90;78.80;;;;;;4973075;28;20790;-60
2023/06/29 01:13:18;;;;;;;21.47;20.40;;;24.90;78.60;;;;;;4981617;28;20889;-61
2023/06/29 01:15:46;;;;;;;22.10;21.13;;;24.90;78.70;;;;;;4990657;28;20471;-59
2023/06/29 01:18:14;;;;;;;22.90;21.83;;;24.90;78.50;;;;;;4992323;28;20546;-60
2023/06/29 01:20:42;;;;;;;21.87;20.87;;;24.90;78.80;;;;;;4992372;28;20490;-61
2023/06/29 01:23:11;;;;;;;21.23;20.13;;;24.90;78.80;;;;;;4979191;28;20526;-61
2023/06/29 01:25:40;;;;;;;21.33;20.43;;;24.90;79.00;;;;;;4972458;28;20454;-60
2023/06/29 01:28:08;;;;;;;22.17;21.07;;;24.90;79.00;;;;;;4972900;28;20503;-61
2023/06/29 01:30:39;;;;;;;22.33;21.43;;;24.90;79.00;;;;;;4972898;28;20454;-59
2023/06/29 01:33:06;;;;;;;21.87;20.67;;;24.90;79.00;;;;;;4984704;28;20940;-61
2023/06/29 01:35:33;;;;;;;22.07;21.17;;;24.90;78.90;;;;;;4979417;28;20483;-59
2023/06/29 01:38:04;;;;;;;21.93;20.63;;;24.90;78.90;;;;;;4972533;28;20506;-60
2023/06/29 01:40:33;;;;;;;21.30;20.30;;;24.90;79.10;;;;;;4972792;28;20451;-60
2023/06/29 01:43:02;;;;;;;21.03;20.03;;;24.90;79.10;;;;;;4983316;28;20554;-61
2023/06/29 01:45:29;;;;;;;23.00;21.90;;;24.90;79.20;;;;;;4991959;28;20501;-61
2023/06/29 01:47:57;;;;;;;22.07;21.17;;;24.90;79.10;;;;;;4992395;28;20498;-58
2023/06/29 01:50:25;;;;;;;21.93;20.57;;;24.90;79.30;;;;;;4992431;28;20483;-61
2023/06/29 01:52:52;;;;;;;20.70;19.80;;;24.90;79.40;;;;;;4982644;28;20886;-58
2023/06/29 01:55:20;;;;;;;21.23;20.20;;;24.90;79.40;;;;;;4972898;28;20483;-61
2023/06/29 01:57:47;;;;;;;21.70;20.70;;;24.90;79.40;;;;;;4972535;28;20518;-57
2023/06/29 02:00:16;;;;;;;21.87;20.77;;;24.90;79.40;;;;;;4972685;28;20483;-60
2023/06/29 02:02:43;;;;;;;21.20;20.20;;;24.80;79.60;;;;;;4979246;28;20572;-57
2023/06/29 02:05:10;;;;;;;21.87;20.97;;;24.90;79.60;;;;;;4987977;28;20996;-59
2023/06/29 02:07:37;;;;;;;24.13;23.03;;;24.90;79.60;;;;;;4972400;28;20529;-59
2023/06/29 02:10:05;;;;;;;21.33;20.43;;;24.80;79.60;;;;;;4972584;28;20455;-56
2023/06/29 02:12:32;;;;;;;21.53;20.63;;;24.90;79.50;;;;;;4973613;28;20596;-59
2023/06/29 02:14:59;;;;;;;21.33;20.43;;;24.90;79.40;;;;;;4972903;28;20475;-60
2023/06/29 02:17:27;;;;;;;22.47;21.57;;;24.80;79.50;;;;;;4972210;28;20514;-60
2023/06/29 02:19:54;;;;;;;22.70;21.80;;;24.90;79.50;;;;;;4972437;28;20539;-61
2023/06/29 02:22:21;;;;;;;22.60;21.60;;;24.90;79.80;;;;;;4990572;28;20530;-60
2023/06/29 02:24:48;;;;;;;23.37;22.37;;;24.80;79.90;;;;;;4992163;28;20446;-61
2023/06/29 02:27:15;;;;;;;22.50;21.60;;;24.80;79.80;;;;;;4991722;28;20545;-60
2023/06/29 02:29:41;;;;;;;21.07;20.27;;;24.80;79.80;;;;;;4991827;28;20483;-61
2023/06/29 02:32:09;;;;;;;21.60;20.60;;;24.80;80.00;;;;;;4990271;28;20474;-59
2023/06/29 02:34:37;;;;;;;20.63;19.83;;;24.80;80.00;;;;;;4991831;28;20443;-61
2023/06/29 02:37:05;;;;;;;22.80;21.90;;;24.90;80.10;;;;;;4993312;28;20513;-59
2023/06/29 02:39:32;;;;;;;22.07;21.07;;;24.90;80.10;;;;;;4995467;28;20455;-61
2023/06/29 02:41:59;;;;;;;21.43;20.53;;;24.80;80.10;;;;;;4993988;28;20522;-58
2023/06/29 02:44:26;;;;;;;21.90;20.90;;;24.90;79.90;;;;;;4995254;28;20521;-60
2023/06/29 02:46:52;;;;;;;22.33;21.33;;;24.90;80.10;;;;;;4995015;28;20541;-61
2023/06/29 02:49:19;;;;;;;22.07;21.17;;;24.80;80.10;;;;;;4995147;28;20482;-59
2023/06/29 02:51:47;;;;;;;21.57;20.67;;;24.80;80.40;;;;;;4990407;28;20486;-60
2023/06/29 02:54:14;;;;;;;22.43;21.43;;;24.80;80.70;;;;;;4978771;28;20443;-60
2023/06/29 02:56:41;;;;;;;22.53;21.50;;;24.80;80.80;;;;;;4975264;28;20518;-58
2023/06/29 02:59:08;;;;;;;23.50;22.60;;;24.80;81.10;;;;;;4975707;28;20490;-61
2023/06/29 03:01:35;;;;;;;23.80;22.40;;;24.80;80.80;;;;;;4985698;28;20542;-60
2023/06/29 03:04:02;;;;;;;22.53;21.63;;;24.80;81.20;;;;;;4994818;28;20570;-58
2023/06/29 03:06:29;;;;;;;24.10;23.10;;;24.80;81.10;;;;;;4994443;28;20549;-60
2023/06/29 03:08:57;;;;;;;23.60;22.50;;;24.90;81.40;;;;;;4994862;28;20493;-60
2023/06/29 03:11:24;;;;;;;25.73;24.30;;;24.80;81.30;;;;;;4986192;28;20475;-60
2023/06/29 03:13:51;;;;;;;23.47;22.47;;;24.80;81.80;;;;;;4975221;28;20443;-61
2023/06/29 03:16:17;;;;;;;23.23;22.10;;;24.90;82.10;;;;;;4974904;28;20483;-61
2023/06/29 03:18:44;;;;;;;22.10;21.30;;;24.80;82.20;;;;;;4975025;28;20526;-60
2023/06/29 03:21:11;;;;;;;24.37;23.27;;;24.80;82.10;;;;;;4994591;28;20542;-61
2023/06/29 03:23:38;;;;;;;23.13;22.20;;;24.80;82.40;;;;;;4994286;28;20582;-61
2023/06/29 03:26:06;;;;;;;23.93;23.03;;;24.80;82.60;;;;;;4994281;28;20489;-61
2023/06/29 03:28:33;;;;;;;24.37;23.17;;;24.80;82.40;;;;;;4982087;28;20886;-58
2023/06/29 03:31:00;;;;;;;22.50;21.60;;;24.70;81.90;;;;;;4974949;28;20492;-61
2023/06/29 03:33:27;;;;;;;22.83;21.90;;;24.80;82.50;;;;;;4974772;28;20483;-61
2023/06/29 03:35:54;;;;;;;23.13;22.13;;;24.80;82.80;;;;;;4974607;28;20486;-61
2023/06/29 03:38:20;;;;;;;23.00;22.07;;;24.80;83.00;;;;;;4977114;28;20554;-61
2023/06/29 03:40:47;;;;;;;24.57;23.50;;;24.70;82.80;;;;;;4994144;28;20574;-61
2023/06/29 03:43:16;;;;;;;23.70;22.70;;;24.70;83.20;;;;;;4994056;28;20574;-61
2023/06/29 03:45:42;;;;;;;22.73;21.90;;;24.80;83.30;;;;;;4993899;28;20546;-61
2023/06/29 03:48:09;;;;;;;24.03;22.87;;;24.70;83.40;;;;;;4993257;28;20502;-60
2023/06/29 03:50:36;;;;;;;23.33;22.17;;;24.80;83.30;;;;;;4993986;28;20498;-59
2023/06/29 03:53:03;;;;;;;23.47;22.47;;;24.70;83.80;;;;;;4993944;28;20475;-61
2023/06/29 03:55:30;;;;;;;23.20;22.30;;;24.70;83.20;;;;;;4993642;28;20485;-61
2023/06/29 03:57:57;;;;;;;23.47;22.43;;;24.80;83.40;;;;;;4987988;28;20530;-61
2023/06/29 04:00:26;;;;;;;23.50;22.53;;;24.70;83.40;;;;;;4974325;28;20455;-60
2023/06/29 04:02:53;;;;;;;27.87;25.97;;;24.70;83.60;;;;;;4974230;28;20483;-61
2023/06/29 04:05:20;;;;;;;26.00;24.90;;;24.70;83.80;;;;;;4974142;28;20532;-60
2023/06/29 04:07:47;;;;;;;24.60;23.60;;;24.70;84.20;;;;;;4974227;28;20555;-61
2023/06/29 04:10:13;;;;;;;25.03;24.13;;;24.70;84.10;;;;;;4974195;28;20483;-61
2023/06/29 04:12:40;;;;;;;25.10;24.10;;;24.70;84.00;;;;;;4992782;28;20533;-60
2023/06/29 04:15:08;;;;;;;26.90;25.80;;;24.70;83.70;;;;;;4993442;28;20485;-62
2023/06/29 04:17:37;;;;;;;25.97;24.83;;;24.70;84.10;;;;;;4990801;28;20505;-61
2023/06/29 04:20:04;;;;;;;25.67;24.57;;;24.70;84.10;;;;;;4973979;28;20452;-61
2023/06/29 04:22:31;;;;;;;25.37;24.27;;;24.70;83.90;;;;;;4973892;28;20479;-58
2023/06/29 04:24:58;;;;;;;25.57;24.60;;;24.70;84.10;;;;;;4973915;28;20610;-61
2023/06/29 04:27:25;;;;;;;25.17;24.03;;;24.70;84.00;;;;;;4973606;28;20503;-61
2023/06/29 04:29:51;;;;;;;25.77;24.77;;;24.70;84.10;;;;;;4993125;28;20534;-61
2023/06/29 04:32:18;;;;;;;27.70;26.50;;;24.70;84.70;;;;;;4993177;28;20482;-61
2023/06/29 04:34:47;;;;;;;24.70;23.70;;;24.70;85.10;;;;;;4993120;28;20478;-61
2023/06/29 04:37:14;;;;;;;26.70;25.70;;;24.70;84.70;;;;;;4980287;28;20843;-61
2023/06/29 04:39:41;;;;;;;25.20;24.10;;;24.70;85.30;;;;;;4973616;28;20535;-61
2023/06/29 04:42:13;;;;;;;23.93;22.97;;;24.70;86.10;;;;;;4973541;28;20530;-61
2023/06/29 04:44:40;;;;;;;27.50;26.40;;;24.70;86.60;;;;;;4973550;28;20826;-61
2023/06/29 04:47:09;;;;;;;25.10;23.70;;;24.70;87.30;;;;;;4982226;28;20467;-60
2023/06/29 04:49:39;;;;;;;26.57;25.47;;;24.60;87.10;;;;;;4973489;28;20458;-61
2023/06/29 04:52:10;;;;;;;25.40;24.20;;;24.60;87.20;;;;;;4973423;28;20456;-62
2023/06/29 04:54:36;;;;;;;26.50;25.20;;;24.60;88.00;;;;;;4973502;28;20440;-60
2023/06/29 04:57:04;;;;;;;27.00;25.70;;;24.60;89.00;;;;;;5011439;23;20506;-59
2023/06/29 04:59:31;;;;;;;24.57;23.50;;;24.60;89.30;;;;;;4992149;28;20905;-60
2023/06/29 05:01:57;;;;;;;25.40;24.20;;;24.60;89.20;;;;;;4994399;28;20983;-61
2023/06/29 05:04:24;;;;;;;25.23;24.03;;;24.60;89.60;;;;;;5003306;28;20570;-60
2023/06/29 05:06:51;;;;;;;25.37;24.27;;;24.60;90.00;;;;;;4992335;28;20502;-60
2023/06/29 05:09:19;;;;;;;28.23;26.80;;;24.50;90.30;;;;;;4992524;28;20486;-61
2023/06/29 05:11:46;;;;;;;27.17;25.80;;;24.60;90.50;;;;;;4992449;28;20454;-59
2023/06/29 05:14:13;;;;;;;26.40;25.30;;;24.50;90.60;;;;;;5007327;28;20982;-59
2023/06/29 05:16:40;;;;;;;26.33;25.23;;;24.50;90.70;;;;;;5011760;28;21056;-60
2023/06/29 05:19:07;;;;;;;26.90;25.60;;;24.50;91.00;;;;;;5012064;28;20492;-59
2023/06/29 05:21:34;;;;;;;27.00;25.60;;;24.50;91.10;;;;;;5005034;28;20478;-59
2023/06/29 05:24:01;;;;;;;24.90;23.73;;;24.50;91.20;;;;;;4992306;28;20569;-59
2023/06/29 05:26:29;;;;;;;24.97;23.87;;;24.50;91.50;;;;;;4992045;28;20489;-58
2023/06/29 05:28:57;;;;;;;25.07;24.07;;;24.50;91.30;;;;;;4992390;28;20964;-59
2023/06/29 05:31:24;;;;;;;25.10;24.00;;;24.50;91.50;;;;;;4997424;28;21002;-59
2023/06/29 05:33:51;;;;;;;24.73;23.63;;;24.50;91.40;;;;;;5011884;28;20950;-58
2023/06/29 05:36:18;;;;;;;25.97;24.30;;;24.50;91.60;;;;;;5011587;28;20493;-60
2023/06/29 05:38:45;;;;;;;25.50;24.50;;;24.50;91.70;;;;;;5011730;28;20485;-59
2023/06/29 05:41:12;;;;;;;28.20;26.80;;;24.50;91.60;;;;;;5011174;28;20576;-60
2023/06/29 05:43:40;;;;;;;28.80;27.30;;;24.50;91.90;;;;;;5011607;28;20524;-60
2023/06/29 05:46:07;;;;;;;26.57;24.80;;;24.50;92.10;;;;;;5009982;28;20446;-60
2023/06/29 05:48:34;;;;;;;26.67;24.83;;;24.50;92.80;;;;;;5008374;28;20498;-60
2023/06/29 05:51:01;;;;;;;26.27;24.70;;;24.50;92.90;;;;;;5011542;28;20477;-59
2023/06/29 05:53:27;;;;;;;27.03;25.83;;;24.50;92.60;;;;;;5011397;28;20482;-58
2023/06/29 05:55:54;;;;;;;25.73;24.63;;;24.50;92.50;;;;;;5011402;28;20529;-56
2023/06/29 05:58:23;;;;;;;24.80;23.80;;;24.50;92.50;;;;;;5011304;28;20509;-59
2023/06/29 06:00:51;;;;;;;25.57;24.43;;;24.50;92.20;;;;;;5011685;28;20858;-58
2023/06/29 06:03:20;;;;;;;24.33;23.23;;;24.60;92.20;;;;;;5011562;28;20812;-58
2023/06/29 06:05:47;;;;;;;27.03;25.93;;;24.60;91.90;;;;;;5011261;28;20481;-54
2023/06/29 06:08:14;;;;;;;26.90;25.60;;;24.60;91.70;;;;;;5011461;28;20824;-58
2023/06/29 06:10:40;;;;;;;25.97;24.87;;;24.60;91.90;;;;;;5011525;28;20860;-57
2023/06/29 06:13:07;;;;;;;24.50;23.50;;;24.60;91.60;;;;;;5015072;28;20503;-57
2023/06/29 06:15:35;;;;;;;25.83;24.73;;;24.60;91.30;;;;;;5015203;28;20556;-55
2023/06/29 06:18:03;;;;;;;26.33;25.17;;;24.60;91.30;;;;;;5015172;28;20806;-59
2023/06/29 06:20:30;;;;;;;26.60;25.23;;;24.60;91.40;;;;;;5015154;28;20480;-57
2023/06/29 06:22:57;;;;;;;25.07;23.80;;;24.60;91.40;;;;;;5015213;28;20488;-59
2023/06/29 06:25:24;;;;;;;27.07;25.97;;;24.60;91.10;;;;;;5014910;28;20509;-58
2023/06/29 06:27:51;;;;;;;26.87;25.77;;;24.60;91.10;;;;;;5014961;28;20901;-56
2023/06/29 06:30:19;;;;;;;24.87;23.73;;;24.60;91.10;;;;;;5015234;28;20881;-60
2023/06/29 06:32:46;;;;;;;26.77;25.53;;;24.60;91.10;;;;;;5014920;28;21001;-57
2023/06/29 06:35:14;;;;;;;25.73;24.60;;;24.60;90.90;;;;;;5014940;28;20528;-59
2023/06/29 06:37:42;;;;;;;25.13;24.10;;;24.60;90.90;;;;;;5014835;28;20504;-57
2023/06/29 06:40:09;;;;;;;24.97;23.77;;;24.70;90.80;;;;;;5014866;28;20532;-60
2023/06/29 06:42:37;;;;;;;25.60;24.43;;;24.60;90.80;;;;;;5014979;28;20482;-59
2023/06/29 06:45:05;;;;;;;25.83;24.73;;;24.70;91.10;;;;;;5014821;28;20564;-56
2023/06/29 06:47:33;;;;;;;27.30;26.20;;;24.70;90.80;;;;;;5014573;28;20553;-54
2023/06/29 06:50:00;;;;;;;27.53;26.33;;;24.60;90.70;;;;;;5014803;28;20492;-55
2023/06/29 06:52:28;;;;;;;27.43;26.23;;;24.70;90.70;;;;;;5014762;28;20881;-58
2023/06/29 06:54:56;;;;;;;27.40;26.20;;;24.70;90.70;;;;;;5014634;28;20450;-58
2023/06/29 06:57:23;;;;;;;27.70;26.60;;;24.60;90.60;;;;;;5014314;28;20491;-60
2023/06/29 06:59:50;;;;;;;28.03;26.70;;;24.70;90.40;;;;;;5014809;28;20549;-59
2023/06/29 07:02:17;;;;;;;27.70;26.57;;;24.70;90.30;;;;;;5014493;28;20488;-59
2023/06/29 07:04:44;;;;;;;27.13;26.10;;;24.70;90.40;;;;;;5014426;28;20560;-59
2023/06/29 07:07:11;;;;;;;25.80;24.70;;;24.70;90.40;;;;;;5014107;28;20501;-59
2023/06/29 07:09:40;;;;;;;27.20;26.10;;;24.70;90.40;;;;;;5014488;28;20537;-57
2023/06/29 07:12:09;;;;;;;26.70;25.63;;;24.70;90.20;;;;;;5014325;28;20533;-60
2023/06/29 07:14:36;;;;;;;26.37;25.37;;;24.70;90.20;;;;;;5014371;28;21009;-56
2023/06/29 07:17:03;;;;;;;27.03;25.93;;;24.70;90.20;;;;;;5013774;28;20501;-58
2023/06/29 07:19:30;;;;;;;26.67;25.57;;;24.70;90.30;;;;;;5014238;28;20489;-59
2023/06/29 07:21:57;;;;;;;25.50;24.50;;;24.70;90.40;;;;;;5013658;28;20453;-58
2023/06/29 07:24:24;;;;;;;26.07;24.97;;;24.70;90.20;;;;;;5014049;28;20576;-59
2023/06/29 07:26:52;;;;;;;26.80;25.70;;;24.70;90.10;;;;;;5013820;28;20512;-58
2023/06/29 07:29:19;;;;;;;26.43;25.37;;;24.70;90.10;;;;;;5014015;28;20493;-58
2023/06/29 07:31:46;;;;;;;26.67;25.57;;;24.70;90.10;;;;;;5013841;28;20868;-57
2023/06/29 07:34:14;;;;;;;26.80;25.77;;;24.70;90.10;;;;;;5013999;28;20623;-56
2023/06/29 07:36:41;;;;;;;26.20;25.20;;;24.70;90.00;;;;;;5013745;28;20470;-57
2023/06/29 07:39:07;;;;;;;27.40;26.13;;;24.70;89.90;;;;;;5013934;28;20870;-59
2023/06/29 07:41:34;;;;;;;26.90;25.80;;;24.70;90.00;;;;;;5013684;28;20450;-58
2023/06/29 07:44:03;;;;;;;26.90;25.90;;;24.70;89.80;;;;;;5013544;28;20446;-59
2023/06/29 07:46:31;;;;;;;25.67;24.60;;;24.70;89.60;;;;;;5013427;28;20481;-58
2023/06/29 07:48:59;;;;;;;26.30;25.30;;;24.70;89.70;;;;;;5013535;28;20446;-60
2023/06/29 07:51:31;;;;;;;26.80;25.30;;;24.80;89.70;;;;;;5013593;28;20450;-60
2023/06/29 07:54:00;;;;;;;27.73;26.53;;;24.70;89.80;;;;;;5013551;28;20515;-58
2023/06/29 07:56:27;;;;;;;25.93;24.93;;;24.70;89.60;;;;;;5013082;28;20500;-59
2023/06/29 07:58:54;;;;;;;27.23;26.23;;;24.70;89.40;;;;;;5013497;28;20473;-58
2023/06/29 08:01:22;;;;;;;28.83;27.73;;;24.70;89.30;;;;;;5013260;28;21014;-59
2023/06/29 08:03:49;;;;;;;27.17;26.17;;;24.70;89.30;;;;;;5013450;28;20537;-58
2023/06/29 08:06:17;;;;;;;27.10;25.77;;;24.80;89.40;;;;;;5012984;28;20576;-56
2023/06/29 08:08:44;;;;;;;26.13;25.10;;;24.80;89.10;;;;;;5013144;28;20457;-58
2023/06/29 08:11:12;;;;;;;25.77;24.77;;;24.70;89.30;;;;;;5013285;28;20787;-59
2023/06/29 08:13:39;;;;;;;27.30;26.00;;;24.70;89.20;;;;;;5013142;28;20482;-58
2023/06/29 08:16:06;;;;;;;26.10;25.00;;;24.80;89.30;;;;;;5012845;28;20811;-59
2023/06/29 08:18:34;;;;;;;26.60;25.60;;;24.80;89.30;;;;;;5012939;28;20591;-57
2023/06/29 08:21:01;;;;;;;25.20;24.30;;;24.80;89.40;;;;;;5013022;28;20489;-58
2023/06/29 08:23:28;;;;;;;24.27;23.17;;;24.80;89.30;;;;;;5012954;28;20955;-58
2023/06/29 08:25:55;;;;;;;26.17;25.07;;;24.80;89.70;;;;;;5012755;28;20920;-58
2023/06/29 08:28:22;;;;;;;26.13;25.03;;;24.80;89.40;;;;;;5012768;28;20995;-57
2023/06/29 08:30:49;;;;;;;25.53;24.50;;;24.80;89.70;;;;;;5012764;28;20849;-59
2023/06/29 08:33:16;;;;;;;25.97;24.87;;;24.80;89.60;;;;;;5012589;28;20477;-58
2023/06/29 08:35:44;;;;;;;26.67;25.60;;;24.80;89.60;;;;;;5012021;28;20524;-59
2023/06/29 08:38:11;;;;;;;25.70;24.70;;;24.80;89.40;;;;;;5012657;28;20469;-60
2023/06/29 08:40:40;;;;;;;24.77;23.80;;;24.80;89.20;;;;;;5012734;28;20478;-58
2023/06/29 08:43:08;;;;;;;25.33;24.33;;;24.80;89.60;;;;;;5012575;28;20533;-59
2023/06/29 08:45:35;;;;;;;25.90;24.80;;;24.80;89.70;;;;;;5012413;28;20803;-58
2023/06/29 08:48:03;;;;;;;26.60;25.60;;;24.80;89.90;;;;;;5012383;28;20494;-58
2023/06/29 08:50:34;;;;;;;25.97;24.97;;;24.80;89.80;;;;;;5012504;28;20481;-59
2023/06/29 08:53:03;;;;;;;29.03;27.63;;;24.80;89.60;;;;;;5012552;28;20477;-59
2023/06/29 08:55:30;;;;;;;27.27;26.17;;;24.80;90.20;;;;;;5012301;28;20525;-57
2023/06/29 08:57:57;;;;;;;27.10;25.97;;;24.90;89.70;;;;;;5012242;28;20505;-59
2023/06/29 09:00:25;;;;;;;27.03;25.83;;;24.80;89.40;;;;;;5012340;28;20482;-58
2023/06/29 09:02:54;;;;;;;28.53;27.43;;;24.80;89.30;;;;;;5012235;28;20477;-59
2023/06/29 09:05:22;;;;;;;27.27;25.97;;;24.80;89.10;;;;;;5011969;28;21013;-57
2023/06/29 09:07:50;;;;;;;26.93;25.80;;;24.80;89.40;;;;;;5012093;28;20470;-58
2023/06/29 09:10:18;;;;;;;26.83;25.70;;;24.80;89.10;;;;;;5012191;28;20450;-59
2023/06/29 09:12:45;;;;;;;27.50;26.40;;;24.80;89.10;;;;;;5012214;28;20477;-58
2023/06/29 09:15:13;;;;;;;28.20;27.07;;;24.90;89.00;;;;;;5012114;28;20446;-56
2023/06/29 09:17:45;;;;;;;27.80;26.70;;;24.90;89.40;;;;;;5011969;28;20839;-59
2023/06/29 09:20:15;;;;;;;27.20;26.10;;;24.80;89.60;;;;;;5012092;28;20450;-59
2023/06/29 09:22:43;;;;;;;28.57;27.10;;;24.90;89.50;;;;;;5011980;28;20450;-58
2023/06/29 09:25:11;;;;;;;28.13;27.03;;;24.90;89.40;;;;;;5011897;28;20577;-58
2023/06/29 09:27:39;;;;;;;26.83;25.53;;;24.90;89.20;;;;;;5011726;28;20473;-58
2023/06/29 09:30:08;;;;;;;27.17;25.97;;;24.90;89.00;;;;;;5011842;28;20485;-59
2023/06/29 09:32:38;;;;;;;26.97;25.90;;;24.90;89.40;;;;;;5011945;28;20446;-57
2023/06/29 09:35:09;;;;;;;27.63;26.40;;;24.90;89.10;;;;;;5011865;28;20482;-56
2023/06/29 09:37:37;;;;;;;27.83;26.53;;;24.90;89.10;;;;;;5011572;28;20509;-55
2023/06/29 09:40:09;;;;;;;28.23;26.93;;;24.90;89.20;;;;;;5011769;28;20501;-58
2023/06/29 09:42:40;;;;;;;27.50;26.30;;;24.90;89.30;;;;;;5011961;28;20446;-58
2023/06/29 09:45:14;;;;;;;28.47;27.27;;;24.90;89.50;;;;;;5012755;28;21003;-58
2023/06/29 09:47:48;;;;;;;26.03;25.03;;;24.90;89.00;;;;;;5018195;28;20519;-59
2023/06/29 09:50:19;;;;;;;29.83;28.53;;;24.90;88.90;;;;;;5018455;28;20477;-55
2023/06/29 09:52:47;;;;;;;30.67;29.10;;;24.90;88.90;;;;;;5018249;28;20485;-58
2023/06/29 09:55:15;;;;;;;29.50;28.30;;;25.00;89.10;;;;;;5018207;28;20449;-59
2023/06/29 09:57:45;;;;;;;28.50;27.40;;;25.00;88.40;;;;;;5017867;28;20504;-59
2023/06/29 10:00:14;;;;;;;29.43;28.10;;;24.90;88.00;;;;;;5018231;28;20549;-58
2023/06/29 10:02:41;;;;;;;30.30;28.90;;;25.00;88.50;;;;;;5018197;28;20971;-58
2023/06/29 10:05:09;;;;;;;31.07;29.67;;;24.90;88.50;;;;;;5018076;28;20520;-60
2023/06/29 10:07:37;;;;;;;30.00;28.70;;;25.00;87.90;;;;;;5017907;28;20501;-56
2023/06/29 10:10:05;;;;;;;28.23;27.03;;;25.00;87.50;;;;;;5018075;28;20492;-58
2023/06/29 10:12:33;;;;;;;29.10;27.80;;;25.00;87.10;;;;;;5017994;28;20536;-57
2023/06/29 10:15:08;;;;;;;28.10;26.57;;;25.00;86.80;;;;;;5018019;28;20476;-59
2023/06/29 10:17:47;;;;;;;27.30;26.10;;;25.00;87.50;;;;;;5017861;28;20830;-60
2023/06/29 10:20:17;;;;;;;28.40;27.10;;;25.00;87.00;;;;;;5018034;28;20536;-58
2023/06/29 10:22:45;;;;;;;28.23;26.93;;;25.00;86.80;;;;;;5017913;28;20532;-57
2023/06/29 10:25:19;;;;;;;28.67;27.33;;;25.00;86.70;;;;;;5017665;28;20892;-58
2023/06/29 10:27:47;;;;;;;29.20;27.70;;;25.00;86.30;;;;;;5017616;28;20497;-58
2023/06/29 10:30:18;;;;;;;30.13;28.73;;;25.00;85.90;;;;;;5017893;28;20445;-59
2023/06/29 10:32:49;;;;;;;29.47;28.07;;;25.00;85.90;;;;;;5017788;28;20445;-58
2023/06/29 10:35:16;;;;;;;28.50;27.20;;;25.00;86.00;;;;;;5017759;28;20469;-57
2023/06/29 10:37:44;;;;;;;31.13;29.63;;;25.00;85.90;;;;;;5017672;28;20501;-58
2023/06/29 10:40:15;;;;;;;29.17;27.67;;;25.10;86.30;;;;;;5017684;28;20795;-59
2023/06/29 10:42:50;;;;;;;28.53;27.20;;;25.10;86.00;;;;;;5017615;28;20485;-58
2023/06/29 10:45:33;;;;;;;30.07;28.57;;;25.10;85.90;;;;;;5017525;28;20476;-59
2023/06/29 10:48:13;;;;;;;29.37;27.83;;;25.10;86.50;;;;;;5016261;28;20484;-59
2023/06/29 10:50:44;;;;;;;30.03;28.23;;;25.10;86.40;;;;;;5017921;28;20543;-58
2023/06/29 10:53:12;;;;;;;28.87;27.57;;;25.10;86.30;;;;;;5017593;28;20966;-58
2023/06/29 10:55:42;;;;;;;30.93;29.40;;;25.10;87.10;;;;;;5017496;28;20479;-59
2023/06/29 10:58:21;;;;;;;28.77;27.37;;;25.10;86.60;;;;;;5041415;23;20613;-61
2023/06/29 11:00:48;;;;;;;29.73;28.43;;;25.10;86.60;;;;;;4994632;28;20501;-60
2023/06/29 11:03:17;;;;;;;28.03;26.73;;;25.10;86.80;;;;;;4994764;28;20446;-61
2023/06/29 11:05:47;;;;;;;31.47;29.90;;;25.10;86.30;;;;;;4994499;28;20573;-62
2023/06/29 11:08:14;;;;;;;29.77;28.47;;;25.10;86.20;;;;;;4994661;28;20906;-58
2023/06/29 11:10:41;;;;;;;31.50;29.80;;;25.20;86.50;;;;;;4994746;28;20479;-61
2023/06/29 11:13:09;;;;;;;30.80;29.27;;;25.10;86.30;;;;;;4994620;28;20822;-61
2023/06/29 11:15:37;;;;;;;28.20;26.90;;;25.10;87.30;;;;;;4994508;28;20445;-61
2023/06/29 11:18:05;;;;;;;29.13;27.73;;;25.10;89.00;;;;;;4994648;28;21121;-60
2023/06/29 11:20:35;;;;;;;29.73;28.20;;;25.10;88.70;;;;;;4994421;28;20447;-59
2023/06/29 11:23:02;;;;;;;30.03;28.60;;;25.10;88.70;;;;;;4994489;28;20948;-58
2023/06/29 11:25:30;;;;;;;29.87;28.43;;;25.10;90.30;;;;;;4994271;28;20515;-60
2023/06/29 11:27:58;;;;;;;29.80;28.13;;;25.10;90.40;;;;;;4994241;28;20474;-60
2023/06/29 11:30:25;;;;;;;30.03;28.57;;;25.10;90.30;;;;;;4994242;28;20878;-58
2023/06/29 11:32:53;;;;;;;31.10;29.60;;;25.20;90.70;;;;;;4994335;28;20539;-61
2023/06/29 11:35:23;;;;;;;29.43;28.03;;;25.10;90.60;;;;;;4994151;28;20486;-60
2023/06/29 11:38:00;;;;;;;30.87;29.27;;;25.10;90.50;;;;;;4993847;28;20835;-61
2023/06/29 11:40:27;;;;;;;28.77;27.40;;;25.20;90.50;;;;;;4994024;28;20447;-59
2023/06/29 11:42:54;;;;;;;29.80;28.33;;;25.20;90.40;;;;;;4994046;28;20546;-59
2023/06/29 11:45:22;;;;;;;32.37;30.67;;;25.20;90.10;;;;;;4993730;28;20458;-59
2023/06/29 11:47:54;;;;;;;29.87;28.40;;;25.20;90.30;;;;;;4993824;28;20463;-60
2023/06/29 11:50:23;;;;;;;29.80;28.20;;;25.20;90.30;;;;;;4993827;28;20916;-57
2023/06/29 11:52:50;;;;;;;30.33;28.83;;;25.20;90.70;;;;;;4993810;28;20537;-61
2023/06/29 11:55:18;;;;;;;31.20;29.73;;;25.20;90.60;;;;;;4993663;28;20447;-61
2023/06/29 11:57:51;;;;;;;30.00;28.33;;;25.20;90.60;;;;;;4993496;28;20517;-61
2023/06/29 12:00:30;;;;;;;31.40;29.70;;;25.20;90.30;;;;;;4993878;28;20458;-59
2023/06/29 12:02:57;;;;;;;31.97;30.10;;;25.20;90.40;;;;;;4993821;28;20861;-60
2023/06/29 12:05:28;;;;;;;31.10;29.40;;;25.20;90.20;;;;;;4993372;28;20487;-62
2023/06/29 12:07:56;;;;;;;32.23;30.53;;;25.20;90.10;;;;;;4993620;28;20474;-62
2023/06/29 12:10:25;;;;;;;31.13;29.43;;;25.20;90.00;;;;;;4992557;28;20529;-60
2023/06/29 12:12:55;;;;;;;30.37;28.77;;;25.20;89.60;;;;;;4993456;28;20447;-61
2023/06/29 12:15:25;;;;;;;31.77;30.07;;;25.20;89.20;;;;;;4993354;28;20451;-61
2023/06/29 12:17:53;;;;;;;31.10;29.53;;;25.30;89.20;;;;;;4993310;28;20474;-59
2023/06/29 12:20:21;;;;;;;33.47;31.80;;;25.30;90.20;;;;;;4993343;28;20505;-60
2023/06/29 12:22:50;;;;;;;33.03;31.20;;;25.20;90.40;;;;;;4993378;28;20537;-60
2023/06/29 12:25:19;;;;;;;30.23;28.47;;;25.30;90.20;;;;;;4993187;28;20442;-56
2023/06/29 12:27:49;;;;;;;30.80;29.20;;;25.30;90.20;;;;;;4993338;28;20514;-61
2023/06/29 12:30:20;;;;;;;33.47;31.70;;;25.30;90.70;;;;;;4993529;28;20482;-61
2023/06/29 12:32:47;;;;;;;33.83;31.93;;;25.30;90.40;;;;;;4993215;28;20967;-60